createdAt,value
2019-04-06T00:00:37.820Z,4.60
2019-04-06T00:03:06.313Z,4.60
2019-04-06T00:05:34.788Z,4.60
2019-04-06T00:08:03.591Z,4.60
2019-04-06T00:10:32.075Z,4.60
2019-04-06T00:13:00.585Z,4.60
2019-04-06T00:15:29.432Z,4.60
2019-04-06T00:17:57.916Z,4.50
2019-04-06T00:20:26.376Z,4.40
2019-04-06T00:22:54.825Z,4.40
2019-04-06T00:25:23.296Z,4.30
2019-04-06T00:27:51.795Z,4.20
2019-04-06T00:30:20.733Z,4.10
2019-04-06T00:32:56.562Z,4.00
2019-04-06T00:35:25.046Z,4.00
2019-04-06T00:37:53.527Z,3.90
2019-04-06T00:40:21.999Z,3.90
2019-04-06T00:42:50.451Z,3.80
2019-04-06T00:45:18.974Z,3.80
2019-04-06T00:47:47.458Z,3.70
2019-04-06T00:50:15.989Z,3.60
2019-04-06T00:52:44.450Z,3.60
2019-04-06T00:55:13.507Z,3.60
2019-04-06T00:57:42.284Z,3.50
2019-04-06T01:00:11.096Z,3.50
2019-04-06T01:02:39.582Z,3.30
2019-04-06T01:05:09.158Z,3.20
2019-04-06T01:07:37.620Z,3.20
2019-04-06T01:10:06.809Z,3.20
2019-04-06T01:12:35.311Z,3.30
2019-04-06T01:15:04.807Z,3.30
2019-04-06T01:17:33.374Z,3.20
2019-04-06T01:20:02.199Z,3.20
2019-04-06T01:22:30.981Z,3.10
2019-04-06T01:24:59.530Z,3.10
2019-04-06T01:27:28.026Z,3.00
2019-04-06T01:29:56.459Z,2.90
2019-04-06T01:32:24.913Z,2.90
2019-04-06T01:34:53.388Z,2.90
2019-04-06T01:37:21.843Z,2.90
2019-04-06T01:39:50.295Z,2.90
2019-04-06T01:42:18.844Z,2.90
2019-04-06T01:44:47.311Z,2.70
2019-04-06T01:47:16.072Z,2.70
2019-04-06T01:49:44.867Z,2.60
2019-04-06T01:52:13.653Z,2.60
2019-04-06T01:54:42.424Z,2.60
2019-04-06T01:57:10.885Z,2.50
2019-04-06T01:59:39.407Z,2.40
2019-04-06T02:02:12.279Z,2.40
2019-04-06T02:04:40.719Z,2.40
2019-04-06T02:07:09.167Z,2.30
2019-04-06T02:09:37.632Z,2.30
2019-04-06T02:12:06.175Z,2.30
2019-04-06T02:14:34.635Z,2.30
2019-04-06T02:17:03.483Z,2.30
2019-04-06T02:19:32.036Z,2.30
2019-04-06T02:22:01.132Z,2.20
2019-04-06T02:24:29.626Z,2.20
2019-04-06T02:26:58.091Z,2.20
2019-04-06T02:29:26.564Z,2.10
2019-04-06T02:32:05.679Z,2.10
2019-04-06T02:34:53.972Z,2.10
2019-04-06T02:37:24.087Z,2.10
2019-04-06T02:40:03.097Z,2.10
2019-04-06T02:42:33.194Z,2.00
2019-04-06T02:45:01.761Z,1.90
2019-04-06T02:47:30.385Z,1.80
2019-04-06T02:49:58.926Z,1.80
2019-04-06T02:52:27.387Z,1.80
2019-04-06T02:54:55.854Z,1.80
2019-04-06T02:57:24.329Z,1.70
2019-04-06T02:59:52.795Z,1.70
2019-04-06T03:02:21.254Z,1.70
2019-04-06T03:04:49.728Z,1.70
2019-04-06T03:07:18.196Z,1.60
2019-04-06T03:09:46.655Z,1.50
2019-04-06T03:12:15.128Z,1.50
2019-04-06T03:14:44.720Z,1.40
2019-04-06T03:17:13.524Z,1.40
2019-04-06T03:19:42.011Z,1.40
2019-04-06T03:22:10.464Z,1.40
2019-04-06T03:24:39.173Z,1.40
2019-04-06T03:27:07.773Z,1.40
2019-04-06T03:29:36.238Z,1.40
2019-04-06T03:32:04.813Z,1.40
2019-04-06T03:34:33.549Z,1.30
2019-04-06T03:37:02.790Z,1.30
2019-04-06T03:39:31.578Z,1.20
2019-04-06T03:42:00.064Z,1.20
2019-04-06T03:44:28.592Z,1.20
2019-04-06T03:46:57.071Z,1.20
2019-04-06T03:49:25.578Z,1.20
2019-04-06T03:51:54.429Z,1.10
2019-04-06T03:54:22.953Z,1.10
2019-04-06T03:56:51.419Z,1.10
2019-04-06T03:59:19.933Z,1.00
2019-04-06T04:01:48.659Z,0.90
2019-04-06T04:04:17.603Z,0.90
2019-04-06T04:06:46.136Z,0.90
2019-04-06T04:09:14.592Z,0.90
2019-04-06T04:11:43.039Z,0.90
2019-04-06T04:14:11.892Z,0.90
2019-04-06T04:16:40.428Z,0.90
2019-04-06T04:19:09.028Z,0.90
2019-04-06T04:21:37.554Z,0.90
2019-04-06T04:24:06.038Z,0.90
2019-04-06T04:26:34.604Z,0.90
2019-04-06T04:29:03.164Z,0.90
2019-04-06T04:31:31.977Z,0.90
2019-04-06T04:34:00.704Z,0.90
2019-04-06T04:36:29.533Z,0.80
2019-04-06T04:38:58.297Z,0.80
2019-04-06T04:41:27.021Z,0.90
2019-04-06T04:43:55.491Z,0.90
2019-04-06T04:46:24.161Z,0.80
2019-04-06T04:48:52.801Z,0.80
2019-04-06T04:51:21.302Z,0.80
2019-04-06T04:53:49.759Z,0.80
2019-04-06T04:56:18.216Z,0.70
2019-04-06T04:58:46.683Z,0.70
2019-04-06T05:01:15.238Z,0.70
2019-04-06T05:03:43.992Z,0.70
2019-04-06T05:06:12.469Z,0.60
2019-04-06T05:08:40.990Z,0.60
2019-04-06T05:11:09.626Z,0.50
2019-04-06T05:13:38.444Z,0.60
2019-04-06T05:16:13.480Z,0.60
2019-04-06T05:18:43.093Z,0.70
2019-04-06T05:21:12.197Z,0.70
2019-04-06T05:23:40.859Z,0.70
2019-04-06T05:26:09.665Z,0.80
2019-04-06T05:28:38.118Z,0.90
2019-04-06T05:31:06.959Z,0.90
2019-04-06T05:33:35.407Z,1.00
2019-04-06T05:36:04.337Z,1.00
2019-04-06T05:38:32.824Z,1.10
2019-04-06T05:41:01.268Z,1.20
2019-04-06T05:43:29.723Z,1.20
2019-04-06T05:45:58.191Z,1.30
2019-04-06T05:48:26.744Z,1.40
2019-04-06T05:50:55.319Z,1.50
2019-04-06T05:53:23.767Z,1.60
2019-04-06T05:55:52.431Z,1.70
2019-04-06T05:58:20.988Z,1.80
2019-04-06T06:00:49.443Z,1.80
2019-04-06T06:03:18.091Z,2.00
2019-04-06T06:05:46.877Z,2.00
2019-04-06T06:08:15.382Z,2.10
2019-04-06T06:10:43.889Z,2.20
2019-04-06T06:13:12.377Z,2.30
2019-04-06T06:15:40.888Z,2.50
2019-04-06T06:18:09.383Z,2.70
2019-04-06T06:20:37.918Z,2.90
2019-04-06T06:23:06.385Z,3.00
2019-04-06T06:25:35.212Z,3.10
2019-04-06T06:28:13.792Z,3.30
2019-04-06T06:30:33.873Z,3.40
2019-04-06T06:33:02.360Z,3.60
2019-04-06T06:35:30.982Z,3.70
2019-04-06T06:37:59.715Z,3.70
2019-04-06T06:40:28.161Z,3.60
2019-04-06T06:42:57.036Z,3.60
2019-04-06T06:45:25.495Z,3.60
2019-04-06T06:47:53.987Z,3.80
2019-04-06T06:50:22.443Z,4.00
2019-04-06T06:52:50.902Z,4.20
2019-04-06T06:55:19.447Z,4.30
2019-04-06T06:57:48.047Z,4.40
2019-04-06T07:00:16.990Z,4.60
2019-04-06T07:02:45.501Z,4.70
2019-04-06T07:05:14.421Z,4.90
2019-04-06T07:07:42.951Z,5.20
2019-04-06T07:10:12.060Z,5.40
2019-04-06T07:12:40.542Z,5.70
2019-04-06T07:15:09.213Z,6.00
2019-04-06T07:17:37.922Z,6.40
2019-04-06T07:20:07.537Z,6.50
2019-04-06T07:22:36.779Z,6.60
2019-04-06T07:25:06.814Z,6.70
2019-04-06T07:27:35.266Z,7.00
2019-04-06T07:30:07.825Z,7.20
2019-04-06T07:32:36.320Z,7.40
2019-04-06T07:35:06.115Z,7.60
2019-04-06T07:37:34.586Z,7.90
2019-04-06T07:40:03.708Z,8.20
2019-04-06T07:42:32.351Z,8.60
2019-04-06T07:45:00.985Z,8.90
2019-04-06T07:47:29.430Z,9.20
2019-04-06T07:49:57.892Z,9.60
2019-04-06T07:52:26.526Z,9.90
2019-04-06T07:54:55.090Z,10.20
2019-04-06T07:57:23.552Z,10.50
2019-04-06T07:59:52.203Z,10.70
2019-04-06T08:02:20.934Z,11.00
2019-04-06T08:04:49.380Z,11.40
2019-04-06T08:07:17.835Z,11.70
2019-04-06T08:09:46.573Z,11.90
2019-04-06T08:12:15.309Z,12.20
2019-04-06T08:14:43.795Z,12.30
2019-04-06T08:17:12.247Z,12.50
2019-04-06T08:19:40.703Z,12.60
2019-04-06T08:22:09.151Z,12.80
2019-04-06T08:24:37.603Z,13.00
2019-04-06T08:27:06.059Z,13.20
2019-04-06T08:29:34.605Z,13.30
2019-04-06T08:32:03.506Z,13.60
2019-04-06T08:34:31.987Z,13.90
2019-04-06T08:37:00.440Z,13.80
2019-04-06T08:39:28.907Z,13.70
2019-04-06T08:41:57.428Z,13.60
2019-04-06T08:44:26.465Z,13.60
2019-04-06T08:46:54.987Z,13.80
2019-04-06T08:49:23.467Z,14.10
2019-04-06T08:51:52.008Z,14.10
2019-04-06T08:54:20.472Z,14.30
2019-04-06T08:56:49.268Z,14.30
2019-04-06T08:59:17.763Z,14.50
2019-04-06T09:01:46.219Z,14.70
2019-04-06T09:04:14.679Z,14.80
2019-04-06T09:06:43.136Z,15.10
2019-04-06T09:09:11.957Z,15.10
2019-04-06T09:11:40.815Z,15.20
2019-04-06T09:14:09.375Z,15.10
2019-04-06T09:16:37.839Z,15.10
2019-04-06T09:19:06.314Z,15.30
2019-04-06T09:21:34.836Z,15.20
2019-04-06T09:24:03.803Z,15.20
2019-04-06T09:26:32.499Z,15.20
2019-04-06T09:29:00.956Z,15.20
2019-04-06T09:31:29.504Z,15.00
2019-04-06T09:33:58.081Z,14.80
2019-04-06T09:36:26.512Z,14.90
2019-04-06T09:38:55.250Z,15.20
2019-04-06T09:41:26.026Z,15.60
2019-04-06T09:43:53.883Z,15.90
2019-04-06T09:46:32.683Z,16.30
2019-04-06T09:49:18.368Z,16.60
2019-04-06T09:52:04.879Z,16.50
2019-04-06T09:54:40.443Z,16.60
2019-04-06T09:57:19.528Z,16.80
2019-04-06T09:59:55.700Z,16.80
2019-04-06T10:02:42.128Z,16.90
2019-04-06T10:05:21.838Z,17.40
2019-04-06T10:07:54.646Z,17.70
2019-04-06T10:10:40.125Z,18.20
2019-04-06T10:13:13.111Z,18.60
2019-04-06T10:16:01.455Z,19.10
2019-04-06T10:18:40.218Z,19.30
2019-04-06T10:21:10.381Z,19.40
2019-04-06T10:23:56.723Z,19.30
2019-04-06T10:26:42.771Z,19.40
2019-04-06T10:29:31.904Z,19.50
2019-04-06T10:32:04.934Z,19.40
2019-04-06T10:34:43.777Z,19.40
2019-04-06T10:37:16.641Z,19.10
2019-04-06T10:39:58.724Z,18.90
2019-04-06T10:42:31.798Z,18.90
2019-04-06T10:45:07.368Z,18.80
2019-04-06T10:47:43.437Z,18.90
2019-04-06T10:50:19.699Z,18.90
2019-04-06T10:52:58.882Z,18.80
2019-04-06T10:55:38.188Z,18.80
2019-04-06T10:58:20.739Z,19.00
2019-04-06T11:00:53.773Z,19.10
2019-04-06T11:03:30.051Z,18.70
2019-04-06T11:06:03.439Z,18.60
2019-04-06T11:08:33.789Z,18.60
2019-04-06T11:11:04.483Z,18.70
2019-04-06T11:13:43.894Z,18.70
2019-04-06T11:16:23.302Z,18.90
2019-04-06T11:18:56.525Z,19.20
2019-04-06T11:21:42.970Z,19.30
2019-04-06T11:24:29.240Z,19.20
2019-04-06T11:26:59.341Z,19.10
2019-04-06T11:29:29.472Z,19.50
2019-04-06T11:31:59.602Z,19.90
2019-04-06T11:34:45.816Z,20.00
2019-04-06T11:37:19.042Z,19.90
2019-04-06T11:39:49.128Z,19.70
2019-04-06T11:42:19.338Z,19.40
2019-04-06T11:45:07.659Z,19.10
2019-04-06T11:47:40.376Z,18.90
2019-04-06T11:50:26.918Z,18.80
2019-04-06T11:52:56.997Z,18.90
2019-04-06T11:55:33.606Z,18.80
2019-04-06T11:58:03.728Z,18.60
2019-04-06T12:00:36.285Z,18.60
2019-04-06T12:03:06.644Z,18.70
2019-04-06T12:05:37.148Z,18.70
2019-04-06T12:08:25.084Z,18.70
2019-04-06T12:11:01.160Z,18.60
2019-04-06T12:13:40.112Z,18.90
2019-04-06T12:16:16.658Z,19.30
2019-04-06T12:18:47.388Z,19.50
2019-04-06T12:21:32.528Z,19.50
2019-04-06T12:24:11.969Z,19.50
2019-04-06T12:26:57.134Z,19.40
2019-04-06T12:29:27.229Z,19.30
2019-04-06T12:32:06.251Z,19.00
2019-04-06T12:34:48.439Z,18.80
2019-04-06T12:37:21.606Z,18.50
2019-04-06T12:40:08.195Z,18.20
2019-04-06T12:42:38.632Z,17.90
2019-04-06T12:45:26.130Z,17.60
2019-04-06T12:48:08.060Z,17.30
2019-04-06T12:50:55.062Z,17.00
2019-04-06T12:53:42.002Z,17.00
2019-04-06T12:56:12.089Z,16.90
2019-04-06T12:58:51.392Z,16.70
2019-04-06T13:01:38.407Z,16.80
2019-04-06T13:04:14.482Z,16.80
2019-04-06T13:07:00.785Z,16.70
2019-04-06T13:09:30.880Z,16.50
2019-04-06T13:12:12.707Z,16.40
2019-04-06T13:14:51.663Z,16.30
2019-04-06T13:17:38.615Z,16.40
2019-04-06T13:20:16.420Z,16.60
2019-04-06T13:22:52.555Z,16.60
2019-04-06T13:25:37.619Z,16.60
2019-04-06T13:28:07.743Z,16.70
2019-04-06T13:31:00.942Z,16.70
2019-04-06T13:33:33.659Z,16.70
2019-04-06T13:36:06.781Z,16.70
2019-04-06T13:38:39.920Z,16.90
2019-04-06T13:41:10.393Z,17.20
2019-04-06T13:43:52.555Z,17.60
2019-04-06T13:46:28.445Z,17.90
2019-04-06T13:49:07.946Z,18.40
2019-04-06T13:51:38.283Z,18.60
2019-04-06T13:54:25.586Z,18.50
2019-04-06T13:57:04.251Z,18.20
2019-04-06T13:59:49.385Z,17.90
2019-04-06T14:02:35.900Z,17.50
2019-04-06T14:05:26.058Z,17.10
2019-04-06T14:08:02.199Z,17.00
2019-04-06T14:10:48.636Z,17.00
2019-04-06T14:13:21.487Z,17.00
2019-04-06T14:15:54.682Z,17.10
2019-04-06T14:18:41.271Z,17.30
2019-04-06T14:21:11.373Z,17.90
2019-04-06T14:23:44.860Z,18.80
2019-04-06T14:26:31.141Z,19.90
2019-04-06T14:29:10.031Z,20.80
2019-04-06T14:31:48.793Z,21.10
2019-04-06T14:34:35.431Z,20.90
2019-04-06T14:37:11.495Z,20.50
2019-04-06T14:39:50.674Z,20.10
2019-04-06T14:42:32.870Z,19.80
2019-04-06T14:45:08.518Z,19.60
2019-04-06T14:47:54.983Z,19.30
2019-04-06T14:50:41.701Z,19.10
2019-04-06T14:53:11.980Z,19.00
2019-04-06T14:55:48.274Z,19.00
2019-04-06T14:58:30.403Z,19.10
2019-04-06T15:01:06.275Z,19.10
2019-04-06T15:03:36.691Z,19.10
2019-04-06T15:06:18.732Z,19.00
2019-04-06T15:08:52.001Z,19.60
2019-04-06T15:11:22.704Z,21.00
2019-04-06T15:13:56.297Z,22.20
2019-04-06T15:16:29.131Z,23.20
2019-04-06T15:18:59.287Z,23.80
2019-04-06T15:21:29.388Z,24.10
2019-04-06T15:24:02.502Z,24.00
2019-04-06T15:26:35.287Z,23.10
2019-04-06T15:29:05.739Z,22.40
2019-04-06T15:31:52.519Z,22.00
2019-04-06T15:34:39.373Z,21.70
2019-04-06T15:37:09.645Z,21.10
2019-04-06T15:39:54.673Z,20.60
2019-04-06T15:42:33.519Z,20.30
2019-04-06T15:45:20.019Z,20.10
2019-04-06T15:47:58.621Z,20.10
2019-04-06T15:50:29.041Z,20.10
2019-04-06T15:53:16.106Z,20.10
2019-04-06T15:56:02.681Z,20.10
2019-04-06T15:58:38.216Z,20.00
2019-04-06T16:01:26.758Z,19.80
2019-04-06T16:03:56.867Z,19.90
2019-04-06T16:06:32.691Z,20.00
2019-04-06T16:09:02.819Z,20.20
2019-04-06T16:11:49.415Z,20.10
2019-04-06T16:14:31.784Z,19.80
2019-04-06T16:17:01.913Z,19.40
2019-04-06T16:19:49.723Z,19.20
2019-04-06T16:22:25.825Z,19.20
2019-04-06T16:24:55.896Z,19.50
2019-04-06T16:27:28.676Z,20.30
2019-04-06T16:29:58.781Z,21.30
2019-04-06T16:32:37.658Z,21.90
2019-04-06T16:35:13.687Z,22.10
2019-04-06T16:37:44.153Z,21.90
2019-04-06T16:40:20.057Z,21.50
2019-04-06T16:43:05.704Z,21.20
2019-04-06T16:45:36.742Z,21.10
2019-04-06T16:48:13.435Z,21.70
2019-04-06T16:50:43.567Z,22.40
2019-04-06T16:53:13.668Z,23.30
2019-04-06T16:55:46.632Z,23.80
2019-04-06T16:58:16.800Z,23.90
2019-04-06T17:00:47.308Z,23.60
2019-04-06T17:03:17.979Z,23.10
2019-04-06T17:05:48.494Z,22.10
2019-04-06T17:08:27.579Z,21.40
2019-04-06T17:11:06.927Z,20.60
2019-04-06T17:13:43.284Z,19.90
2019-04-06T17:16:29.565Z,19.20
2019-04-06T17:19:12.142Z,18.50
2019-04-06T17:21:43.115Z,17.80
2019-04-06T17:24:18.890Z,17.30
2019-04-06T17:26:51.707Z,17.00
2019-04-06T17:29:39.818Z,16.80
2019-04-06T17:32:09.936Z,16.80
2019-04-06T17:34:54.881Z,16.60
2019-04-06T17:37:20.991Z,16.40
2019-04-06T17:39:54.180Z,16.10
2019-04-06T17:42:40.503Z,15.80
2019-04-06T17:45:27.587Z,15.50
2019-04-06T17:48:13.540Z,15.40
2019-04-06T17:50:43.819Z,15.20
2019-04-06T17:53:16.595Z,15.00
2019-04-06T17:55:46.886Z,14.90
2019-04-06T17:58:19.911Z,14.80
2019-04-06T18:00:53.046Z,14.60
2019-04-06T18:03:28.931Z,14.50
2019-04-06T18:06:11.243Z,14.50
2019-04-06T18:08:41.504Z,14.40
2019-04-06T18:11:17.112Z,14.40
2019-04-06T18:13:47.348Z,14.30
2019-04-06T18:16:16.608Z,14.30
2019-04-06T18:18:45.593Z,14.20
2019-04-06T18:21:14.615Z,14.10
2019-04-06T18:23:43.099Z,14.00
2019-04-06T18:26:11.868Z,13.90
2019-04-06T18:28:40.800Z,13.90
2019-04-06T18:31:11.163Z,13.70
2019-04-06T18:33:40.145Z,13.60
2019-04-06T18:36:08.897Z,13.40
2019-04-06T18:38:38.964Z,13.20
2019-04-06T18:41:07.466Z,13.10
2019-04-06T18:43:35.913Z,13.00
2019-04-06T18:46:04.670Z,12.90
2019-04-06T18:48:33.851Z,12.90
2019-04-06T18:51:02.614Z,12.80
2019-04-06T18:53:31.031Z,12.60
2019-04-06T18:55:59.460Z,12.50
2019-04-06T18:58:27.888Z,12.40
2019-04-06T19:00:56.321Z,12.30
2019-04-06T19:03:25.403Z,12.20
2019-04-06T19:05:54.501Z,12.10
2019-04-06T19:08:23.360Z,11.90
2019-04-06T19:10:52.575Z,11.70
2019-04-06T19:13:21.607Z,11.60
2019-04-06T19:15:50.174Z,11.50
2019-04-06T19:18:19.139Z,11.50
2019-04-06T19:20:48.224Z,11.40
2019-04-06T19:23:17.370Z,11.40
2019-04-06T19:25:45.959Z,11.30
2019-04-06T19:28:14.436Z,11.30
2019-04-06T19:30:42.906Z,11.30
2019-04-06T19:33:22.727Z,11.20
2019-04-06T19:35:41.819Z,11.10
2019-04-06T19:38:10.744Z,11.10
2019-04-06T19:40:39.577Z,11.10
2019-04-06T19:43:08.074Z,11.00
2019-04-06T19:45:36.537Z,10.90
2019-04-06T19:48:05.024Z,10.80
2019-04-06T19:50:33.826Z,10.70
2019-04-06T19:53:02.285Z,10.50
2019-04-06T19:55:30.867Z,10.40
2019-04-06T19:57:59.758Z,10.30
2019-04-06T20:00:28.483Z,10.20
2019-04-06T20:02:57.901Z,10.20
2019-04-06T20:05:26.566Z,10.10
2019-04-06T20:07:55.014Z,10.00
2019-04-06T20:10:23.502Z,10.00
2019-04-06T20:12:52.131Z,10.00
2019-04-06T20:15:20.611Z,10.00
2019-04-06T20:17:49.060Z,9.90
2019-04-06T20:20:17.513Z,9.90
2019-04-06T20:22:45.971Z,9.90
2019-04-06T20:25:15.026Z,9.80
2019-04-06T20:27:43.530Z,9.60
2019-04-06T20:30:12.307Z,9.60
2019-04-06T20:32:40.915Z,9.50
2019-04-06T20:35:09.831Z,9.40
2019-04-06T20:37:38.603Z,9.20
2019-04-06T20:40:08.696Z,9.10
2019-04-06T20:42:37.488Z,9.00
2019-04-06T20:45:08.246Z,9.00
2019-04-06T20:47:37.090Z,9.00
2019-04-06T20:50:09.261Z,9.00
2019-04-06T20:52:38.407Z,9.00
2019-04-06T20:55:08.045Z,9.00
2019-04-06T20:57:36.528Z,8.90
2019-04-06T21:00:07.203Z,8.90
2019-04-06T21:02:35.922Z,8.80
2019-04-06T21:05:06.834Z,8.70
2019-04-06T21:07:35.321Z,8.60
2019-04-06T21:10:05.385Z,8.50
2019-04-06T21:12:34.251Z,8.50
2019-04-06T21:15:16.000Z,8.40
2019-04-06T21:17:34.270Z,8.40
2019-04-06T21:20:03.214Z,8.30
2019-04-06T21:22:31.667Z,8.30
2019-04-06T21:25:00.516Z,8.20
2019-04-06T21:27:28.966Z,8.20
2019-04-06T21:29:57.803Z,8.10
2019-04-06T21:32:26.345Z,8.10
2019-04-06T21:34:54.883Z,8.00
2019-04-06T21:37:24.205Z,7.90
2019-04-06T21:39:53.274Z,7.90
2019-04-06T21:42:21.952Z,7.80
2019-04-06T21:44:50.461Z,7.80
2019-04-06T21:47:19.392Z,7.70
2019-04-06T21:49:48.158Z,7.70
2019-04-06T21:52:16.863Z,7.60
2019-04-06T21:54:45.502Z,7.50
2019-04-06T21:57:14.193Z,7.50
2019-04-06T21:59:42.743Z,7.40
2019-04-06T22:02:11.609Z,7.30
2019-04-06T22:04:40.178Z,7.40
2019-04-06T22:07:08.848Z,7.40
2019-04-06T22:09:37.342Z,7.40
2019-04-06T22:12:06.112Z,7.30
2019-04-06T22:14:35.894Z,7.20
2019-04-06T22:17:06.303Z,7.10
2019-04-06T22:19:34.835Z,7.10
2019-04-06T22:22:03.646Z,7.10
2019-04-06T22:24:32.761Z,7.00
2019-04-06T22:27:01.802Z,7.00
2019-04-06T22:29:30.456Z,7.00
2019-04-06T22:31:59.555Z,6.90
2019-04-06T22:34:36.441Z,6.90
2019-04-06T22:36:59.394Z,6.90
2019-04-06T22:39:28.402Z,6.90
2019-04-06T22:41:57.151Z,6.90
2019-04-06T22:44:25.855Z,6.80
2019-04-06T22:46:54.359Z,6.80
2019-04-06T22:49:22.800Z,6.80
2019-04-06T22:51:51.603Z,6.80
2019-04-06T22:54:21.275Z,6.80
2019-04-06T22:56:49.949Z,6.70
2019-04-06T22:59:18.878Z,6.60
2019-04-06T23:01:47.543Z,6.50
2019-04-06T23:04:33.236Z,6.40
2019-04-06T23:07:09.754Z,6.30
2019-04-06T23:09:38.366Z,6.20
2019-04-06T23:12:07.420Z,6.10
2019-04-06T23:14:36.647Z,6.10
2019-04-06T23:17:05.482Z,6.00
2019-04-06T23:19:33.915Z,6.00
2019-04-06T23:22:02.664Z,6.00
2019-04-06T23:24:31.746Z,6.00
2019-04-06T23:27:00.723Z,5.90
2019-04-06T23:29:30.471Z,5.90
2019-04-06T23:31:58.950Z,5.90
2019-04-06T23:34:27.424Z,5.90
2019-04-06T23:36:55.947Z,5.90
2019-04-06T23:39:24.378Z,5.80
2019-04-06T23:41:52.972Z,5.70
2019-04-06T23:44:21.472Z,5.80
2019-04-06T23:46:49.919Z,5.70
2019-04-06T23:49:19.054Z,5.70
2019-04-06T23:51:48.097Z,5.70
2019-04-06T23:54:16.606Z,5.80
2019-04-06T23:56:45.083Z,5.80
2019-04-06T23:59:13.627Z,5.80
